createdAt,value
2023-04-20T00:00:47.681Z,61.18
2023-04-20T00:03:14.639Z,61.38
2023-04-20T00:05:41.356Z,61.36
2023-04-20T00:08:08.170Z,61.60
2023-04-20T00:10:34.718Z,61.56
2023-04-20T00:13:01.224Z,61.48
2023-04-20T00:15:27.838Z,61.57
2023-04-20T00:17:54.419Z,61.35
2023-04-20T00:20:21.022Z,61.39
2023-04-20T00:22:47.688Z,61.58
2023-04-20T00:25:14.310Z,61.50
2023-04-20T00:27:40.907Z,61.51
2023-04-20T00:30:08.342Z,61.75
2023-04-20T00:32:36.117Z,61.84
2023-04-20T00:35:02.847Z,61.63
2023-04-20T00:37:29.725Z,61.93
2023-04-20T00:39:57.656Z,61.87
2023-04-20T00:42:24.633Z,61.87
2023-04-20T00:44:51.561Z,61.65
2023-04-20T00:47:18.154Z,61.72
2023-04-20T00:49:45.006Z,61.89
2023-04-20T00:52:11.760Z,61.92
2023-04-20T00:54:39.011Z,62.00
2023-04-20T00:57:05.804Z,61.94
2023-04-20T00:59:34.616Z,61.84
2023-04-20T01:02:01.359Z,61.84
2023-04-20T01:04:29.347Z,61.74
2023-04-20T01:06:58.388Z,61.93
2023-04-20T01:09:24.892Z,62.22
2023-04-20T01:11:51.419Z,62.13
2023-04-20T01:14:18.042Z,62.03
2023-04-20T01:16:44.964Z,61.80
2023-04-20T01:19:12.610Z,62.13
2023-04-20T01:21:39.135Z,62.06
2023-04-20T01:24:06.406Z,62.14
2023-04-20T01:26:32.985Z,61.91
2023-04-20T01:28:59.619Z,62.01
2023-04-20T01:31:26.438Z,62.11
2023-04-20T01:33:52.972Z,61.99
2023-04-20T01:36:21.425Z,62.14
2023-04-20T01:38:48.642Z,62.23
2023-04-20T01:41:15.771Z,62.12
2023-04-20T01:43:42.554Z,62.06
2023-04-20T01:46:11.717Z,62.00
2023-04-20T01:48:39.692Z,62.12
2023-04-20T01:51:06.313Z,62.16
2023-04-20T01:53:32.804Z,62.17
2023-04-20T01:55:59.483Z,62.24
2023-04-20T01:58:26.081Z,62.23
2023-04-20T02:00:52.817Z,62.35
2023-04-20T02:03:19.594Z,62.14
2023-04-20T02:05:47.002Z,62.29
2023-04-20T02:08:13.712Z,62.33
2023-04-20T02:10:40.374Z,62.09
2023-04-20T02:13:08.979Z,62.07
2023-04-20T02:19:01.623Z,62.38
2023-04-20T02:21:28.285Z,62.42
2023-04-20T02:23:54.894Z,62.39
2023-04-20T02:26:21.465Z,62.35
2023-04-20T02:28:48.000Z,62.42
2023-04-20T02:31:14.561Z,62.42
2023-04-20T02:33:50.016Z,62.37
2023-04-20T02:36:29.813Z,62.49
2023-04-20T02:38:56.454Z,62.56
2023-04-20T02:41:23.131Z,62.59
2023-04-20T02:43:49.740Z,62.62
2023-04-20T02:46:17.391Z,62.64
2023-04-20T02:48:44.101Z,62.64
2023-04-20T02:51:11.075Z,62.53
2023-04-20T02:53:42.385Z,62.48
2023-04-20T02:56:16.746Z,62.67
2023-04-20T02:58:48.320Z,62.59
2023-04-20T03:01:24.165Z,62.53
2023-04-20T03:03:57.865Z,62.56
2023-04-20T03:06:24.757Z,62.65
2023-04-20T03:08:54.066Z,62.60
2023-04-20T03:11:39.229Z,62.63
2023-04-20T03:14:06.248Z,62.63
2023-04-20T03:16:33.350Z,62.58
2023-04-20T03:19:00.020Z,62.57
2023-04-20T03:21:26.650Z,62.60
2023-04-20T03:23:53.753Z,62.55
2023-04-20T03:26:20.462Z,62.53
2023-04-20T03:29:05.937Z,62.58
2023-04-20T03:31:32.661Z,62.68
2023-04-20T03:33:59.569Z,62.67
2023-04-20T03:36:28.358Z,62.68
2023-04-20T03:38:56.465Z,62.66
2023-04-20T03:41:23.173Z,62.63
2023-04-20T03:43:49.803Z,62.75
2023-04-20T03:46:16.492Z,62.67
2023-04-20T03:48:44.397Z,62.68
2023-04-20T03:51:10.915Z,62.69
2023-04-20T03:53:39.587Z,62.74
2023-04-20T03:56:07.682Z,62.77
2023-04-20T03:58:34.326Z,62.68
2023-04-20T04:01:10.530Z,62.79
2023-04-20T04:03:39.137Z,62.82
2023-04-20T04:06:07.073Z,62.94
2023-04-20T04:08:33.724Z,62.88
2023-04-20T04:11:00.834Z,62.94
2023-04-20T04:13:27.446Z,63.05
2023-04-20T04:15:54.028Z,63.03
2023-04-20T04:18:22.913Z,63.00
2023-04-20T04:20:49.879Z,62.98
2023-04-20T04:23:16.494Z,62.98
2023-04-20T04:25:47.292Z,63.05
2023-04-20T04:28:14.933Z,63.04
2023-04-20T04:30:48.416Z,63.11
2023-04-20T04:33:15.067Z,63.18
2023-04-20T04:35:43.969Z,63.30
2023-04-20T04:38:13.103Z,63.33
2023-04-20T04:40:41.902Z,63.20
2023-04-20T04:43:10.127Z,63.23
2023-04-20T04:45:43.431Z,63.06
2023-04-20T04:48:12.532Z,63.07
2023-04-20T04:50:39.738Z,63.18
2023-04-20T04:53:06.867Z,63.37
2023-04-20T04:55:33.832Z,63.44
2023-04-20T04:58:01.764Z,63.19
2023-04-20T05:00:29.273Z,63.17
2023-04-20T05:02:56.067Z,63.11
2023-04-20T05:05:23.180Z,63.12
2023-04-20T05:07:49.689Z,63.05
2023-04-20T05:10:16.474Z,63.09
2023-04-20T05:12:43.112Z,63.01
2023-04-20T05:15:10.009Z,63.07
2023-04-20T05:17:36.642Z,63.13
2023-04-20T05:20:06.340Z,63.11
2023-04-20T05:22:33.062Z,63.13
2023-04-20T05:24:59.614Z,63.15
2023-04-20T05:27:26.104Z,63.23
2023-04-20T05:29:52.636Z,63.13
2023-04-20T05:32:19.248Z,63.09
2023-04-20T05:34:45.987Z,63.16
2023-04-20T05:37:13.365Z,63.27
2023-04-20T05:39:40.362Z,63.51
2023-04-20T05:42:06.950Z,63.40
2023-04-20T05:44:34.110Z,63.45
2023-04-20T05:47:00.645Z,63.42
2023-04-20T05:49:27.171Z,63.52
2023-04-20T05:51:53.749Z,63.64
2023-04-20T05:54:20.441Z,63.48
2023-04-20T05:56:46.950Z,63.51
2023-04-20T05:59:13.604Z,63.59
2023-04-20T06:01:40.246Z,63.47
2023-04-20T06:04:07.102Z,63.52
2023-04-20T06:06:34.100Z,63.33
2023-04-20T06:09:00.974Z,63.18
2023-04-20T06:11:27.563Z,63.23
2023-04-20T06:13:54.300Z,62.95
2023-04-20T06:16:21.124Z,62.50
2023-04-20T06:18:47.839Z,62.73
2023-04-20T06:21:16.174Z,62.44
2023-04-20T06:23:44.320Z,62.60
2023-04-20T06:26:11.528Z,62.50
2023-04-20T06:28:38.678Z,62.24
2023-04-20T06:31:06.085Z,62.21
2023-04-20T06:33:32.801Z,62.25
2023-04-20T06:35:59.630Z,62.00
2023-04-20T06:38:26.399Z,61.74
2023-04-20T06:40:53.012Z,62.04
2023-04-20T06:43:19.641Z,61.98
2023-04-20T06:45:46.698Z,61.76
2023-04-20T06:48:30.128Z,61.59
2023-04-20T06:50:58.428Z,61.44
2023-04-20T06:53:25.167Z,61.51
2023-04-20T06:55:54.839Z,61.26
2023-04-20T06:58:21.708Z,61.32
2023-04-20T07:00:48.262Z,61.37
2023-04-20T07:03:14.923Z,61.14
2023-04-20T07:05:41.694Z,60.83
2023-04-20T07:08:09.460Z,60.57
2023-04-20T07:10:36.182Z,60.34
2023-04-20T07:13:02.755Z,60.21
2023-04-20T07:15:29.330Z,60.02
2023-04-20T07:17:55.986Z,60.09
2023-04-20T07:20:22.654Z,59.24
2023-04-20T07:22:49.287Z,59.00
2023-04-20T07:25:17.773Z,58.83
2023-04-20T07:27:44.456Z,58.50
2023-04-20T07:30:12.115Z,57.86
2023-04-20T07:32:40.221Z,57.11
2023-04-20T07:35:07.772Z,56.52
2023-04-20T07:37:34.434Z,56.15
2023-04-20T07:40:01.178Z,56.52
2023-04-20T07:42:29.852Z,55.58
2023-04-20T07:44:56.620Z,55.03
2023-04-20T07:47:23.272Z,54.53
2023-04-20T07:49:50.308Z,54.21
2023-04-20T07:52:18.289Z,54.15
2023-04-20T07:54:45.752Z,54.18
2023-04-20T07:57:12.668Z,54.36
2023-04-20T07:59:40.877Z,54.32
2023-04-20T08:02:08.568Z,54.27
2023-04-20T08:04:39.254Z,53.88
2023-04-20T08:07:06.175Z,53.55
2023-04-20T08:09:33.220Z,52.81
2023-04-20T08:12:00.654Z,52.57
2023-04-20T08:14:27.652Z,51.99
2023-04-20T08:16:54.361Z,51.87
2023-04-20T08:19:21.244Z,51.54
2023-04-20T08:21:47.796Z,51.32
2023-04-20T08:24:14.487Z,50.77
2023-04-20T08:26:43.452Z,50.49
2023-04-20T08:29:10.554Z,50.42
2023-04-20T08:31:37.293Z,49.81
2023-04-20T08:34:04.428Z,49.09
2023-04-20T08:36:32.265Z,47.99
2023-04-20T08:39:13.941Z,47.39
2023-04-20T08:41:41.447Z,47.73
2023-04-20T08:44:08.569Z,47.77
2023-04-20T08:46:37.705Z,47.54
2023-04-20T08:49:04.410Z,47.83
2023-04-20T08:51:32.682Z,46.89
2023-04-20T08:54:05.546Z,45.82
2023-04-20T08:56:44.134Z,45.81
2023-04-20T08:59:12.898Z,46.43
2023-04-20T09:01:41.729Z,47.15
2023-04-20T09:04:29.614Z,47.18
2023-04-20T09:06:56.719Z,46.99
2023-04-20T09:09:25.694Z,47.24
2023-04-20T09:12:07.218Z,46.64
2023-04-20T09:14:45.206Z,46.38
2023-04-20T09:17:14.323Z,46.01
2023-04-20T09:19:41.587Z,45.59
2023-04-20T09:22:08.169Z,45.19
2023-04-20T09:24:36.737Z,44.71
2023-04-20T09:27:16.909Z,44.40
2023-04-20T09:29:44.233Z,43.62
2023-04-20T09:32:24.112Z,43.53
2023-04-20T09:34:51.262Z,43.05
2023-04-20T09:37:18.004Z,43.99
2023-04-20T09:39:46.022Z,44.09
2023-04-20T09:42:14.521Z,43.92
2023-04-20T09:44:41.563Z,44.26
2023-04-20T09:47:08.884Z,44.43
2023-04-20T09:49:41.276Z,43.54
2023-04-20T09:52:08.498Z,44.15
2023-04-20T09:54:37.347Z,44.09
2023-04-20T09:57:05.945Z,43.34
2023-04-20T09:59:33.454Z,42.98
2023-04-20T10:02:00.224Z,41.73
2023-04-20T10:04:27.117Z,42.19
2023-04-20T10:06:55.713Z,41.78
2023-04-20T10:09:28.677Z,41.96
2023-04-20T10:12:06.785Z,42.04
2023-04-20T10:14:33.652Z,41.96
2023-04-20T10:17:00.595Z,42.05
2023-04-20T10:19:38.741Z,41.56
2023-04-20T10:22:06.906Z,41.46
2023-04-20T10:24:33.663Z,41.96
2023-04-20T10:27:00.314Z,42.07
2023-04-20T10:29:28.226Z,42.17
2023-04-20T10:31:55.969Z,41.52
2023-04-20T10:34:36.567Z,40.87
2023-04-20T10:37:12.577Z,41.23
2023-04-20T10:39:46.692Z,42.16
2023-04-20T10:42:15.486Z,42.26
2023-04-20T10:44:48.197Z,42.31
2023-04-20T10:47:15.546Z,41.37
2023-04-20T10:49:42.117Z,40.99
2023-04-20T10:52:08.664Z,40.85
2023-04-20T10:54:39.723Z,40.54
2023-04-20T10:57:07.321Z,41.05
2023-04-20T10:59:41.970Z,40.36
2023-04-20T11:02:10.829Z,39.97
2023-04-20T11:04:37.916Z,39.91
2023-04-20T11:07:07.353Z,39.51
2023-04-20T11:09:34.564Z,39.79
2023-04-20T11:12:06.264Z,39.19
2023-04-20T11:14:35.979Z,39.29
2023-04-20T11:17:02.737Z,38.68
2023-04-20T11:19:34.410Z,38.06
2023-04-20T11:22:02.169Z,38.41
2023-04-20T11:24:31.783Z,38.63
2023-04-20T11:26:58.874Z,39.23
2023-04-20T11:29:30.219Z,39.03
2023-04-20T11:31:57.759Z,39.54
2023-04-20T11:34:24.472Z,38.90
2023-04-20T11:36:52.524Z,38.68
2023-04-20T11:39:29.704Z,39.07
2023-04-20T11:41:59.349Z,38.36
2023-04-20T11:44:29.208Z,38.01
2023-04-20T11:46:59.841Z,37.32
2023-04-20T11:49:28.722Z,37.65
2023-04-20T11:51:55.858Z,38.32
2023-04-20T11:54:23.814Z,39.10
2023-04-20T11:56:50.841Z,39.24
2023-04-20T11:59:20.056Z,39.27
2023-04-20T12:01:47.871Z,38.52
2023-04-20T12:04:15.802Z,37.81
2023-04-20T12:06:42.827Z,37.39
2023-04-20T12:09:10.645Z,36.98
2023-04-20T12:11:37.303Z,37.06
2023-04-20T12:14:04.988Z,37.01
2023-04-20T12:16:31.802Z,36.77
2023-04-20T12:18:58.556Z,36.94
2023-04-20T12:21:25.229Z,37.01
2023-04-20T12:23:51.993Z,37.02
2023-04-20T12:26:18.638Z,37.20
2023-04-20T12:28:45.399Z,37.25
2023-04-20T12:31:12.406Z,37.96
2023-04-20T12:33:39.219Z,38.04
2023-04-20T12:36:06.154Z,37.79
2023-04-20T12:38:32.840Z,37.76
2023-04-20T12:40:59.557Z,37.83
2023-04-20T12:43:26.161Z,37.60
2023-04-20T12:45:52.794Z,37.05
2023-04-20T12:48:19.479Z,36.87
2023-04-20T12:50:46.483Z,36.55
2023-04-20T12:53:13.324Z,36.62
2023-04-20T12:55:40.467Z,36.76
2023-04-20T12:58:07.153Z,37.19
2023-04-20T13:00:34.438Z,37.72
2023-04-20T13:03:01.537Z,37.87
2023-04-20T13:05:29.018Z,37.56
2023-04-20T13:07:56.520Z,37.59
2023-04-20T13:10:23.753Z,37.54
2023-04-20T13:12:52.344Z,37.32
2023-04-20T13:15:31.892Z,37.26
2023-04-20T13:18:06.359Z,37.05
2023-04-20T13:20:33.109Z,36.53
2023-04-20T13:23:01.275Z,36.52
2023-04-20T13:25:32.628Z,36.77
2023-04-20T13:28:00.722Z,36.84
2023-04-20T13:30:28.550Z,36.93
2023-04-20T13:32:55.402Z,36.29
2023-04-20T13:35:22.225Z,35.98
2023-04-20T13:37:49.045Z,35.77
2023-04-20T13:40:16.108Z,35.72
2023-04-20T13:42:44.408Z,35.75
2023-04-20T13:45:13.484Z,35.70
2023-04-20T13:47:40.562Z,35.87
2023-04-20T13:50:08.615Z,35.82
2023-04-20T13:52:35.684Z,35.86
2023-04-20T13:55:02.622Z,35.93
2023-04-20T13:57:33.483Z,35.96
2023-04-20T14:00:02.553Z,35.99
2023-04-20T14:02:33.865Z,35.91
2023-04-20T14:05:04.546Z,35.69
2023-04-20T14:07:34.412Z,35.74
2023-04-20T14:10:06.944Z,36.13
2023-04-20T14:12:36.581Z,36.46
2023-04-20T14:15:05.483Z,36.54
2023-04-20T14:17:34.631Z,36.55
2023-04-20T14:20:04.264Z,36.65
2023-04-20T14:22:36.553Z,36.73
2023-04-20T14:25:05.747Z,36.56
2023-04-20T14:27:34.556Z,36.66
2023-04-20T14:30:04.722Z,36.49
2023-04-20T14:32:36.278Z,36.48
2023-04-20T14:35:06.185Z,36.10
2023-04-20T14:37:36.502Z,36.08
2023-04-20T14:40:07.506Z,36.09
2023-04-20T14:42:38.558Z,36.02
2023-04-20T14:45:07.788Z,35.94
2023-04-20T14:47:36.563Z,35.83
2023-04-20T14:50:05.583Z,35.70
2023-04-20T14:52:35.578Z,35.62
2023-04-20T14:55:04.870Z,35.83
2023-04-20T15:05:02.515Z,36.13
2023-04-20T15:07:29.890Z,36.20
2023-04-20T15:09:56.516Z,36.29
2023-04-20T15:12:23.216Z,36.32
2023-04-20T15:14:49.814Z,36.28
2023-04-20T15:17:16.614Z,36.12
2023-04-20T15:19:46.161Z,36.07
2023-04-20T15:22:13.620Z,36.12
2023-04-20T15:24:41.292Z,36.12
2023-04-20T15:27:08.102Z,35.91
2023-04-20T15:29:34.738Z,35.91
2023-04-20T15:32:01.654Z,36.05
2023-04-20T15:34:29.235Z,36.16
2023-04-20T15:36:56.367Z,36.06
2023-04-20T15:39:23.207Z,36.03
2023-04-20T15:41:49.893Z,36.09
2023-04-20T15:44:17.106Z,36.10
2023-04-20T15:46:44.161Z,36.17
2023-04-20T15:49:10.906Z,36.08
2023-04-20T15:51:38.624Z,36.26
2023-04-20T15:54:06.894Z,36.16
2023-04-20T15:56:33.483Z,36.12
2023-04-20T15:59:00.284Z,36.21
2023-04-20T16:01:27.584Z,36.38
2023-04-20T16:03:54.606Z,36.29
2023-04-20T16:06:21.837Z,36.27
2023-04-20T16:08:50.808Z,36.25
2023-04-20T16:11:17.544Z,36.32
2023-04-20T16:13:44.503Z,36.51
2023-04-20T16:16:11.451Z,36.52
2023-04-20T16:18:38.048Z,36.54
2023-04-20T16:21:04.672Z,36.33
2023-04-20T16:23:31.449Z,36.43
2023-04-20T16:25:58.619Z,36.36
2023-04-20T16:28:26.459Z,36.45
2023-04-20T16:30:53.090Z,36.43
2023-04-20T16:33:20.281Z,36.66
2023-04-20T16:35:46.899Z,36.47
2023-04-20T16:38:13.503Z,36.54
2023-04-20T16:40:40.240Z,36.46
2023-04-20T16:43:06.845Z,36.43
2023-04-20T16:45:33.696Z,36.27
2023-04-20T16:48:00.838Z,36.33
2023-04-20T16:50:27.922Z,36.43
2023-04-20T16:52:56.791Z,36.27
2023-04-20T16:55:24.009Z,36.41
2023-04-20T16:57:50.640Z,36.50
2023-04-20T17:00:17.714Z,36.52
2023-04-20T17:02:44.513Z,36.36
2023-04-20T17:05:11.316Z,36.43
2023-04-20T17:07:37.896Z,36.53
2023-04-20T17:10:06.984Z,36.55
2023-04-20T17:12:33.642Z,36.65
2023-04-20T17:15:00.950Z,36.59
2023-04-20T17:17:28.344Z,36.71
2023-04-20T17:19:55.289Z,36.52
2023-04-20T17:22:22.008Z,36.71
2023-04-20T17:24:48.665Z,36.75
2023-04-20T17:27:16.088Z,36.75
2023-04-20T17:29:44.775Z,36.72
2023-04-20T17:32:12.195Z,36.86
2023-04-20T17:34:40.185Z,36.70
2023-04-20T17:37:07.270Z,36.79
2023-04-20T17:39:34.003Z,36.66
2023-04-20T17:42:01.456Z,36.85
2023-04-20T17:44:28.063Z,37.00
2023-04-20T17:46:54.836Z,37.05
2023-04-20T17:49:21.505Z,36.96
2023-04-20T17:51:48.128Z,37.19
2023-04-20T17:54:15.601Z,37.41
2023-04-20T17:56:42.386Z,37.18
2023-04-20T17:59:09.530Z,37.34
2023-04-20T18:01:36.221Z,37.63
2023-04-20T18:04:04.068Z,37.47
2023-04-20T18:06:33.189Z,37.63
2023-04-20T18:09:01.082Z,37.75
2023-04-20T18:11:28.128Z,37.52
2023-04-20T18:13:54.671Z,37.77
2023-04-20T18:16:21.734Z,37.80
2023-04-20T18:18:50.471Z,37.84
2023-04-20T18:21:17.311Z,37.98
2023-04-20T18:23:43.947Z,38.01
2023-04-20T18:26:17.155Z,38.05
2023-04-20T18:28:47.303Z,37.97
2023-04-20T18:31:14.311Z,38.16
2023-04-20T18:33:41.030Z,38.40
2023-04-20T18:36:07.869Z,38.23
2023-04-20T18:38:35.435Z,38.44
2023-04-20T18:41:02.358Z,38.48
2023-04-20T18:43:28.978Z,38.44
2023-04-20T18:45:55.616Z,38.68
2023-04-20T18:48:22.153Z,38.57
2023-04-20T18:50:49.043Z,38.66
2023-04-20T18:53:15.848Z,38.83
2023-04-20T18:55:42.486Z,38.82
2023-04-20T18:58:09.078Z,38.84
2023-04-20T19:00:35.915Z,38.98
2023-04-20T19:03:02.840Z,39.23
2023-04-20T19:05:31.016Z,39.08
2023-04-20T19:07:57.722Z,39.23
2023-04-20T19:10:25.780Z,39.17
2023-04-20T19:12:52.419Z,39.34
2023-04-20T19:15:25.406Z,39.58
2023-04-20T19:17:54.571Z,39.42
2023-04-20T19:20:23.617Z,39.43
2023-04-20T19:22:50.529Z,39.56
2023-04-20T19:25:17.185Z,39.71
2023-04-20T19:27:43.838Z,39.71
2023-04-20T19:30:10.856Z,39.59
2023-04-20T19:32:37.711Z,39.86
2023-04-20T19:35:04.592Z,39.83
2023-04-20T19:37:31.228Z,40.00
2023-04-20T19:39:57.813Z,39.95
2023-04-20T19:42:24.555Z,40.07
2023-04-20T19:44:51.147Z,40.31
2023-04-20T19:47:17.762Z,40.28
2023-04-20T19:49:44.365Z,40.21
2023-04-20T19:52:11.075Z,40.42
2023-04-20T19:54:37.702Z,40.52
2023-04-20T19:57:04.327Z,40.66
2023-04-20T19:59:32.799Z,40.75
2023-04-20T20:01:59.756Z,40.79
2023-04-20T20:04:27.178Z,40.86
2023-04-20T20:06:54.315Z,40.77
2023-04-20T20:09:24.067Z,40.87
2023-04-20T20:11:51.334Z,41.07
2023-04-20T20:14:18.570Z,41.24
2023-04-20T20:16:45.409Z,41.12
2023-04-20T20:19:12.038Z,41.44
2023-04-20T20:21:38.664Z,41.26
2023-04-20T20:24:05.556Z,41.25
2023-04-20T20:26:32.464Z,41.37
2023-04-20T20:28:59.238Z,41.37
2023-04-20T20:31:25.917Z,41.44
2023-04-20T20:33:52.704Z,41.53
2023-04-20T20:36:19.679Z,41.60
2023-04-20T20:38:47.316Z,41.76
2023-04-20T20:41:14.184Z,41.75
2023-04-20T20:43:43.873Z,41.76
2023-04-20T20:46:10.980Z,41.82
2023-04-20T20:48:37.643Z,41.91
2023-04-20T20:51:04.378Z,42.00
2023-04-20T20:53:31.184Z,42.04
2023-04-20T20:55:57.834Z,42.15
2023-04-20T20:58:24.760Z,42.17
2023-04-20T21:00:51.442Z,42.33
2023-04-20T21:03:18.880Z,42.42
2023-04-20T21:05:46.208Z,42.49
2023-04-20T21:08:13.142Z,42.67
2023-04-20T21:10:40.052Z,42.62
2023-04-20T21:13:07.335Z,42.69
2023-04-20T21:15:34.343Z,42.71
2023-04-20T21:18:01.197Z,42.78
2023-04-20T21:20:27.888Z,42.89
2023-04-20T21:22:54.640Z,42.98
2023-04-20T21:25:21.425Z,43.06
2023-04-20T21:27:48.270Z,43.20
2023-04-20T21:30:14.971Z,43.20
2023-04-20T21:32:41.723Z,43.04
2023-04-20T21:35:08.790Z,43.30
2023-04-20T21:37:36.093Z,43.24
2023-04-20T21:40:03.737Z,43.20
2023-04-20T21:42:30.640Z,43.38
2023-04-20T21:44:57.327Z,43.36
2023-04-20T21:47:24.032Z,43.39
2023-04-20T21:49:50.788Z,43.58
2023-04-20T21:52:17.548Z,43.69
2023-04-20T21:54:44.286Z,43.75
2023-04-20T21:57:10.978Z,43.65
2023-04-20T21:59:37.692Z,43.83
2023-04-20T22:02:04.793Z,43.97
2023-04-20T22:04:32.302Z,43.87
2023-04-20T22:07:00.621Z,43.89
2023-04-20T22:09:27.339Z,43.98
2023-04-20T22:11:54.132Z,44.17
2023-04-20T22:14:20.902Z,44.12
2023-04-20T22:16:48.077Z,44.13
2023-04-20T22:19:14.933Z,44.29
2023-04-20T22:21:43.104Z,44.29
2023-04-20T22:24:09.835Z,44.36
2023-04-20T22:26:36.631Z,44.45
2023-04-20T22:29:03.325Z,44.63
2023-04-20T22:31:30.084Z,44.58
2023-04-20T22:33:56.976Z,44.53
2023-04-20T22:36:23.583Z,44.77
2023-04-20T22:38:50.250Z,44.79
2023-04-20T22:41:17.592Z,44.88
2023-04-20T22:43:46.825Z,45.14
2023-04-20T22:46:13.478Z,45.33
2023-04-20T22:48:41.780Z,45.42
2023-04-20T22:51:08.380Z,45.24
2023-04-20T22:53:35.004Z,45.35
2023-04-20T22:56:07.816Z,45.46
2023-04-20T22:58:34.472Z,45.39
2023-04-20T23:01:01.181Z,45.33
2023-04-20T23:03:28.085Z,45.44
2023-04-20T23:05:57.473Z,45.43
2023-04-20T23:08:25.677Z,45.55
2023-04-20T23:10:55.889Z,45.55
2023-04-20T23:13:24.833Z,45.45
2023-04-20T23:15:52.347Z,45.54
2023-04-20T23:18:19.022Z,45.55
2023-04-20T23:20:45.990Z,45.77
2023-04-20T23:23:12.574Z,45.56
2023-04-20T23:25:39.131Z,45.52
2023-04-20T23:28:06.087Z,45.62
2023-04-20T23:30:32.744Z,45.79
2023-04-20T23:32:59.462Z,45.90
2023-04-20T23:35:26.085Z,45.96
2023-04-20T23:37:52.951Z,45.90
2023-04-20T23:40:19.534Z,46.06
2023-04-20T23:42:46.084Z,46.15
2023-04-20T23:45:12.694Z,46.18
2023-04-20T23:47:39.347Z,46.28
2023-04-20T23:50:06.752Z,46.34
2023-04-20T23:52:33.320Z,46.28
2023-04-20T23:54:59.833Z,46.38
2023-04-20T23:57:26.452Z,46.35
2023-04-20T23:59:53.613Z,46.52
